createdAt,value
2018-09-29T00:00:02.577Z,3.66
2018-09-29T00:01:02.443Z,3.26
2018-09-29T00:02:02.868Z,3.27
2018-09-29T00:03:02.740Z,3.28
2018-09-29T00:04:02.567Z,3.23
2018-09-29T00:05:02.540Z,3.33
2018-09-29T00:06:02.549Z,3.39
2018-09-29T00:07:02.695Z,3.35
2018-09-29T00:08:02.850Z,3.44
2018-09-29T00:09:02.515Z,3.39
2018-09-29T00:10:02.779Z,3.46
2018-09-29T00:11:02.455Z,3.55
2018-09-29T00:12:02.434Z,3.34
2018-09-29T00:13:02.427Z,3.43
2018-09-29T00:14:02.521Z,3.49
2018-09-29T00:15:03.270Z,3.48
2018-09-29T00:16:02.477Z,3.46
2018-09-29T00:17:02.545Z,3.39
2018-09-29T00:18:02.545Z,3.38
2018-09-29T00:19:02.475Z,3.48
2018-09-29T00:20:02.428Z,3.53
2018-09-29T00:21:02.407Z,3.53
2018-09-29T00:22:02.419Z,3.39
2018-09-29T00:23:02.386Z,3.48
2018-09-29T00:24:02.502Z,3.46
2018-09-29T00:25:02.860Z,3.22
2018-09-29T00:26:02.459Z,3.33
2018-09-29T00:27:02.559Z,3.35
2018-09-29T00:28:02.493Z,3.26
2018-09-29T00:29:02.582Z,3.26
2018-09-29T00:30:02.398Z,3.31
2018-09-29T00:31:02.416Z,3.25
2018-09-29T00:32:02.529Z,3.37
2018-09-29T00:33:02.424Z,3.54
2018-09-29T00:34:02.833Z,3.73
2018-09-29T00:35:02.428Z,3.8
2018-09-29T00:36:02.386Z,3.84
2018-09-29T00:37:02.399Z,3.81
2018-09-29T00:38:02.528Z,3.85
2018-09-29T00:39:02.386Z,3.88
2018-09-29T00:40:02.442Z,3.96
2018-09-29T00:41:02.661Z,4.04
2018-09-29T00:42:02.383Z,4.06
2018-09-29T00:43:02.384Z,4.12
2018-09-29T00:44:02.381Z,4.12
2018-09-29T00:45:02.651Z,4.14
2018-09-29T00:46:02.379Z,4.33
2018-09-29T00:47:02.549Z,4.36
2018-09-29T00:48:02.526Z,4.3
2018-09-29T00:49:02.425Z,4.31
2018-09-29T00:50:02.437Z,4.34
2018-09-29T00:51:02.497Z,4.33
2018-09-29T00:52:02.658Z,4.37
2018-09-29T00:53:02.365Z,4.43
2018-09-29T00:54:02.347Z,4.43
2018-09-29T00:55:02.424Z,4.44
2018-09-29T00:56:02.405Z,4.41
2018-09-29T00:57:02.470Z,4.48
2018-09-29T00:58:02.390Z,4.34
2018-09-29T00:59:02.446Z,4.43
2018-09-29T01:00:02.339Z,4.44
2018-09-29T01:01:02.517Z,4.45
2018-09-29T01:02:02.406Z,4.46
2018-09-29T01:03:02.484Z,4.38
2018-09-29T01:04:02.776Z,4.42
2018-09-29T01:05:02.591Z,4.48
2018-09-29T01:06:02.420Z,4.46
2018-09-29T01:07:02.379Z,4.65
2018-09-29T01:08:02.329Z,4.38
2018-09-29T01:09:02.353Z,4.38
2018-09-29T01:10:02.361Z,4.45
2018-09-29T01:11:02.340Z,4.33
2018-09-29T01:12:02.346Z,4.37
2018-09-29T01:13:02.346Z,4.38
2018-09-29T01:14:02.347Z,4.38
2018-09-29T01:15:02.316Z,4.39
2018-09-29T01:16:02.340Z,4.4
2018-09-29T01:17:02.444Z,4.37
2018-09-29T01:18:02.606Z,4.41
2018-09-29T01:19:02.360Z,4.39
2018-09-29T01:20:02.351Z,4.49
2018-09-29T01:21:02.330Z,4.5
2018-09-29T01:22:02.326Z,4.52
2018-09-29T01:23:02.345Z,4.49
2018-09-29T01:24:02.315Z,4.45
2018-09-29T01:25:02.313Z,4.25
2018-09-29T01:26:02.306Z,4.21
2018-09-29T01:27:02.308Z,4.32
2018-09-29T01:28:02.349Z,4.39
2018-09-29T01:29:02.354Z,4.38
2018-09-29T01:30:02.368Z,4.31
2018-09-29T01:31:02.453Z,4.35
2018-09-29T01:32:02.555Z,4.41
2018-09-29T01:33:02.516Z,4.42
2018-09-29T01:34:02.468Z,4.39
2018-09-29T01:35:02.447Z,4.44
2018-09-29T01:36:02.436Z,4.46
2018-09-29T01:37:02.281Z,4.39
2018-09-29T01:38:02.826Z,4.43
2018-09-29T01:39:02.349Z,4.39
2018-09-29T01:40:02.375Z,4.37
2018-09-29T01:41:02.381Z,4.43
2018-09-29T01:42:02.517Z,4.45
2018-09-29T01:43:02.284Z,4.43
2018-09-29T01:44:02.289Z,4.41
2018-09-29T01:45:02.440Z,4.38
2018-09-29T01:46:02.339Z,4.41
2018-09-29T01:47:02.293Z,4.4
2018-09-29T01:48:02.380Z,4.36
2018-09-29T01:49:02.734Z,4.36
2018-09-29T01:50:02.452Z,4.35
2018-09-29T01:51:02.592Z,4.39
2018-09-29T01:52:02.280Z,4.28
2018-09-29T01:53:02.709Z,4.32
2018-09-29T01:54:02.345Z,4.34
2018-09-29T01:55:02.506Z,4.3
2018-09-29T01:56:02.510Z,4.21
2018-09-29T01:57:02.552Z,4.32
2018-09-29T01:58:02.440Z,4.04
2018-09-29T01:59:02.310Z,4.2
2018-09-29T02:00:02.392Z,4.22
2018-09-29T02:01:02.386Z,4.34
2018-09-29T02:02:02.352Z,4.33
2018-09-29T02:03:02.448Z,4.3
2018-09-29T02:04:02.295Z,4.36
2018-09-29T02:05:02.387Z,4.34
2018-09-29T02:06:02.265Z,4.44
2018-09-29T02:07:02.477Z,4.38
2018-09-29T02:08:02.994Z,4.43
2018-09-29T02:09:02.296Z,4.47
2018-09-29T02:10:02.418Z,4.46
2018-09-29T02:11:02.351Z,4.46
2018-09-29T02:12:02.354Z,4.43
2018-09-29T02:13:02.274Z,4.31
2018-09-29T02:14:02.339Z,4.39
2018-09-29T02:15:02.602Z,4.29
2018-09-29T02:16:02.382Z,4.32
2018-09-29T02:17:02.347Z,4.27
2018-09-29T02:18:02.235Z,4.25
2018-09-29T02:19:02.680Z,4.19
2018-09-29T02:20:02.235Z,4.24
2018-09-29T02:21:02.700Z,4.18
2018-09-29T02:22:02.315Z,4.28
2018-09-29T02:23:02.216Z,4.3
2018-09-29T02:24:02.243Z,4.33
2018-09-29T02:25:02.407Z,4.33
2018-09-29T02:26:02.226Z,4.35
2018-09-29T02:27:02.263Z,3.96
2018-09-29T02:28:02.355Z,4.11
2018-09-29T02:29:02.739Z,4.13
2018-09-29T02:30:02.296Z,4.04
2018-09-29T02:31:02.223Z,3.88
2018-09-29T02:32:02.217Z,3.66
2018-09-29T02:33:02.462Z,3.8
2018-09-29T02:34:02.211Z,3.82
2018-09-29T02:35:02.267Z,3.85
2018-09-29T02:36:02.217Z,3.9
2018-09-29T02:37:02.337Z,3.81
2018-09-29T02:38:02.231Z,3.84
2018-09-29T02:39:02.193Z,3.84
2018-09-29T02:40:02.196Z,3.8
2018-09-29T02:41:02.203Z,3.75
2018-09-29T02:42:02.176Z,3.77
2018-09-29T02:43:04.612Z,3.76
2018-09-29T02:44:02.199Z,3.82
2018-09-29T02:45:02.214Z,3.66
2018-09-29T02:46:02.195Z,3.72
2018-09-29T02:47:02.215Z,3.81
2018-09-29T02:48:02.269Z,3.72
2018-09-29T02:49:02.572Z,3.78
2018-09-29T02:50:02.348Z,3.81
2018-09-29T02:51:02.297Z,3.78
2018-09-29T02:52:02.275Z,3.68
2018-09-29T02:53:02.234Z,3.75
2018-09-29T02:54:02.201Z,3.73
2018-09-29T02:55:02.480Z,3.68
2018-09-29T02:56:02.352Z,3.52
2018-09-29T02:57:02.214Z,3.52
2018-09-29T02:58:02.172Z,3.62
2018-09-29T02:59:02.160Z,3.58
2018-09-29T03:00:02.200Z,3.53
2018-09-29T03:01:02.220Z,3.53
2018-09-29T03:02:02.175Z,3.57
2018-09-29T03:03:02.250Z,3.61
2018-09-29T03:04:02.377Z,3.64
2018-09-29T03:05:02.727Z,3.63
2018-09-29T03:06:02.401Z,3.68
2018-09-29T03:07:02.424Z,3.62
2018-09-29T03:08:02.601Z,3.52
2018-09-29T03:09:02.432Z,3.55
2018-09-29T03:10:02.144Z,3.52
2018-09-29T03:11:02.214Z,3.56
2018-09-29T03:12:02.168Z,3.51
2018-09-29T03:13:02.127Z,3.46
2018-09-29T03:14:02.261Z,3.45
2018-09-29T03:15:02.299Z,3.45
2018-09-29T03:16:02.138Z,3.33
2018-09-29T03:17:02.275Z,3.4
2018-09-29T03:18:02.230Z,3.4
2018-09-29T03:19:02.595Z,3.27
2018-09-29T03:20:02.419Z,3.29
2018-09-29T03:21:02.208Z,3.32
2018-09-29T03:22:02.160Z,3.31
2018-09-29T03:23:02.570Z,3.34
2018-09-29T03:24:02.141Z,3.39
2018-09-29T03:25:02.217Z,3.35
2018-09-29T03:26:02.557Z,3.22
2018-09-29T03:27:02.420Z,3.23
2018-09-29T03:28:02.235Z,3.14
2018-09-29T03:29:02.437Z,3.17
2018-09-29T03:30:02.188Z,3.18
2018-09-29T03:31:02.164Z,3.23
2018-09-29T03:32:02.230Z,3.28
2018-09-29T03:33:02.165Z,3.22
2018-09-29T03:34:02.377Z,3.2
2018-09-29T03:35:02.152Z,3.16
2018-09-29T03:36:02.293Z,3.18
2018-09-29T03:37:02.644Z,3.21
2018-09-29T03:38:02.143Z,3.15
2018-09-29T03:39:02.252Z,3.22
2018-09-29T03:40:02.154Z,3.22
2018-09-29T03:41:02.172Z,3.29
2018-09-29T03:42:02.209Z,3.22
2018-09-29T03:43:02.350Z,3.27
2018-09-29T03:44:02.681Z,3.34
2018-09-29T03:45:02.228Z,3.38
2018-09-29T03:46:02.157Z,3.36
2018-09-29T03:47:02.153Z,3.28
2018-09-29T03:48:02.467Z,3.3
2018-09-29T03:49:02.393Z,3.2
2018-09-29T03:50:02.248Z,3.21
2018-09-29T03:51:02.514Z,3.18
2018-09-29T03:52:02.112Z,3.21
2018-09-29T03:53:02.168Z,3.26
2018-09-29T03:54:02.162Z,3.25
2018-09-29T03:55:02.193Z,3.33
2018-09-29T03:56:02.125Z,3.31
2018-09-29T03:57:02.131Z,3.3
2018-09-29T03:58:02.116Z,3.3
2018-09-29T03:59:02.156Z,3.22
2018-09-29T04:00:02.137Z,3.22
2018-09-29T04:01:02.119Z,3.24
2018-09-29T04:02:02.160Z,3.32
2018-09-29T04:03:02.110Z,3.28
2018-09-29T04:04:02.107Z,3.26
2018-09-29T04:05:02.158Z,3.22
2018-09-29T04:06:02.167Z,3.31
2018-09-29T04:07:02.116Z,3.29
2018-09-29T04:08:02.086Z,3.36
2018-09-29T04:09:02.138Z,3.38
2018-09-29T04:10:02.231Z,3.41
2018-09-29T04:11:02.112Z,3.36
2018-09-29T04:12:02.093Z,3.4
2018-09-29T04:13:02.144Z,3.38
2018-09-29T04:14:02.482Z,3.36
2018-09-29T04:15:02.363Z,3.42
2018-09-29T04:16:02.069Z,3.45
2018-09-29T04:17:02.150Z,3.46
2018-09-29T04:18:02.275Z,3.4
2018-09-29T04:19:02.042Z,3.31
2018-09-29T04:20:02.403Z,3.39
2018-09-29T04:21:02.082Z,3.34
2018-09-29T04:22:02.100Z,3.36
2018-09-29T04:23:02.306Z,3.19
2018-09-29T04:24:02.108Z,3.19
2018-09-29T04:25:02.443Z,3.28
2018-09-29T04:26:02.202Z,3.3
2018-09-29T04:27:02.171Z,3.27
2018-09-29T04:28:02.178Z,3.28
2018-09-29T04:29:02.119Z,3.35
2018-09-29T04:30:02.143Z,3.23
2018-09-29T04:31:02.093Z,3.26
2018-09-29T04:32:02.820Z,3.22
2018-09-29T04:33:02.272Z,3.26
2018-09-29T04:34:02.277Z,3.31
2018-09-29T04:35:02.190Z,3.33
2018-09-29T04:36:02.167Z,3.33
2018-09-29T04:37:02.084Z,3.28
2018-09-29T04:38:02.041Z,3.37
2018-09-29T04:39:02.101Z,3.3
2018-09-29T04:40:02.338Z,3.27
2018-09-29T04:41:02.275Z,3.28
2018-09-29T04:42:02.147Z,3.31
2018-09-29T04:43:02.585Z,3.28
2018-09-29T04:44:02.145Z,3.21
2018-09-29T04:45:02.269Z,3.24
2018-09-29T04:46:02.072Z,3.24
2018-09-29T04:47:02.119Z,3.22
2018-09-29T04:48:02.008Z,3.22
2018-09-29T04:49:02.432Z,3.22
2018-09-29T04:50:02.114Z,3.1
2018-09-29T04:51:02.149Z,3.18
2018-09-29T04:52:02.036Z,3.17
2018-09-29T04:53:02.092Z,3.21
2018-09-29T04:54:02.232Z,3.3
2018-09-29T04:55:02.211Z,3.28
2018-09-29T04:56:02.048Z,3.29
2018-09-29T04:57:02.174Z,3.41
2018-09-29T04:58:02.197Z,3.25
2018-09-29T04:59:02.096Z,3.22
2018-09-29T05:00:02.215Z,3.12
2018-09-29T05:01:02.186Z,3.11
2018-09-29T05:02:02.159Z,3.11
2018-09-29T05:03:02.093Z,3.12
2018-09-29T05:04:02.232Z,3.19
2018-09-29T05:05:02.100Z,3.23
2018-09-29T05:06:02.342Z,3.16
2018-09-29T05:07:02.091Z,3
2018-09-29T05:08:02.048Z,3.06
2018-09-29T05:09:02.169Z,3.11
2018-09-29T05:10:02.046Z,3.16
2018-09-29T05:11:02.071Z,3.18
2018-09-29T05:12:02.030Z,3.17
2018-09-29T05:13:02.074Z,3.32
2018-09-29T05:14:02.562Z,3.25
2018-09-29T05:15:02.114Z,3.34
2018-09-29T05:16:02.051Z,3.38
2018-09-29T05:17:02.046Z,3.35
2018-09-29T05:18:02.069Z,3.33
2018-09-29T05:19:02.006Z,3.31
2018-09-29T05:20:02.150Z,3.34
2018-09-29T05:21:02.055Z,3.43
2018-09-29T05:22:01.992Z,3.37
2018-09-29T05:23:02.228Z,3.51
2018-09-29T05:24:02.041Z,3.41
2018-09-29T05:25:02.050Z,3.39
2018-09-29T05:26:01.993Z,3.46
2018-09-29T05:27:02.162Z,3.36
2018-09-29T05:28:02.043Z,3.36
2018-09-29T05:29:02.282Z,3.41
2018-09-29T05:30:02.033Z,3.45
2018-09-29T05:31:02.450Z,3.52
2018-09-29T05:32:02.027Z,3.55
2018-09-29T05:33:02.003Z,3.48
2018-09-29T05:34:02.045Z,3.44
2018-09-29T05:35:01.985Z,3.47
2018-09-29T05:36:02.329Z,3.47
2018-09-29T05:37:02.368Z,3.45
2018-09-29T05:38:02.090Z,3.42
2018-09-29T05:39:02.352Z,3.42
2018-09-29T05:40:02.258Z,3.44
2018-09-29T05:41:02.366Z,3.42
2018-09-29T05:42:01.984Z,3.46
2018-09-29T05:43:01.946Z,3.49
2018-09-29T05:44:02.242Z,3.43
2018-09-29T05:45:02.374Z,3.45
2018-09-29T05:46:02.024Z,3.44
2018-09-29T05:47:02.190Z,3.47
2018-09-29T05:48:01.997Z,3.25
2018-09-29T05:49:02.055Z,3.24
2018-09-29T05:50:02.036Z,3.3
2018-09-29T05:51:02.116Z,3.45
2018-09-29T05:52:01.943Z,3.41
2018-09-29T05:53:02.217Z,3.49
2018-09-29T05:54:02.703Z,3.44
2018-09-29T05:55:02.015Z,3.39
2018-09-29T05:56:02.072Z,3.44
2018-09-29T05:57:01.946Z,3.43
2018-09-29T05:58:02.202Z,3.4
2018-09-29T05:59:02.020Z,3.44
2018-09-29T06:00:02.299Z,3.51
2018-09-29T06:01:02.151Z,3.42
2018-09-29T06:02:02.037Z,3.44
2018-09-29T06:03:02.347Z,3.5
2018-09-29T06:04:02.202Z,3.51
2018-09-29T06:05:02.781Z,3.55
2018-09-29T06:06:02.216Z,3.58
2018-09-29T06:07:02.549Z,3.63
2018-09-29T06:08:02.247Z,3.55
2018-09-29T06:09:02.078Z,3.62
2018-09-29T06:10:02.307Z,3.53
2018-09-29T06:11:02.059Z,3.55
2018-09-29T06:12:02.078Z,3.38
2018-09-29T06:13:02.382Z,3.46
2018-09-29T06:14:02.051Z,3.46
2018-09-29T06:15:01.909Z,3.15
2018-09-29T06:16:02.129Z,3.22
2018-09-29T06:17:02.277Z,3.22
2018-09-29T06:18:01.917Z,3.23
2018-09-29T06:19:02.126Z,3.17
2018-09-29T06:20:02.286Z,3.18
2018-09-29T06:21:02.757Z,3.15
2018-09-29T06:22:02.120Z,3.21
2018-09-29T06:23:02.012Z,3.24
2018-09-29T06:24:02.210Z,3.18
2018-09-29T06:25:01.930Z,3.07
2018-09-29T06:26:02.132Z,3.12
2018-09-29T06:27:02.104Z,3.1
2018-09-29T06:28:02.323Z,3.19
2018-09-29T06:29:02.187Z,3.18
2018-09-29T06:30:02.112Z,3.18
2018-09-29T06:31:02.099Z,3.21
2018-09-29T06:32:02.275Z,3.32
2018-09-29T06:33:01.943Z,3.29
2018-09-29T06:34:02.134Z,3.32
2018-09-29T06:35:01.958Z,3.32
2018-09-29T06:36:02.221Z,3.18
2018-09-29T06:37:02.143Z,3.15
2018-09-29T06:38:01.872Z,3.19
2018-09-29T06:39:02.296Z,3.23
2018-09-29T06:40:01.884Z,3.33
2018-09-29T06:41:02.077Z,3.38
2018-09-29T06:42:01.881Z,3.48
2018-09-29T06:43:02.255Z,3.36
2018-09-29T06:44:01.865Z,3.27
2018-09-29T06:45:01.879Z,3.27
2018-09-29T06:46:01.862Z,3.34
2018-09-29T06:47:01.869Z,3.25
2018-09-29T06:48:02.099Z,3.25
2018-09-29T06:49:01.826Z,3.43
2018-09-29T06:50:01.903Z,3.41
2018-09-29T06:51:02.046Z,3.42
2018-09-29T06:52:01.863Z,3.41
2018-09-29T06:53:01.844Z,3.28
2018-09-29T06:54:02.126Z,3.26
2018-09-29T06:55:01.914Z,3.36
2018-09-29T06:56:01.866Z,3.36
2018-09-29T06:57:01.843Z,3.43
2018-09-29T06:58:03.973Z,3.51
2018-09-29T06:59:02.125Z,3.5
2018-09-29T07:00:01.826Z,3.3
2018-09-29T07:01:01.979Z,3.23
2018-09-29T07:02:01.842Z,3.24
2018-09-29T07:03:02.296Z,3.24
2018-09-29T07:04:02.012Z,3.33
2018-09-29T07:05:02.336Z,3.34
2018-09-29T07:06:01.902Z,3.35
2018-09-29T07:07:01.884Z,3.26
2018-09-29T07:08:01.978Z,3.23
2018-09-29T07:09:01.850Z,3.29
2018-09-29T07:10:01.818Z,3.24
2018-09-29T07:11:01.942Z,3.32
2018-09-29T07:12:01.863Z,3.29
2018-09-29T07:13:02.576Z,3.36
2018-09-29T07:14:01.986Z,3.27
2018-09-29T07:15:01.877Z,3.32
2018-09-29T07:16:01.922Z,3.42
2018-09-29T07:17:01.804Z,3.36
2018-09-29T07:18:01.882Z,3.36
2018-09-29T07:19:01.922Z,3.37
2018-09-29T07:20:01.938Z,3.25
2018-09-29T07:21:01.832Z,3.31
2018-09-29T07:22:02.120Z,3.28
2018-09-29T07:23:01.817Z,3.24
2018-09-29T07:24:01.828Z,3.3
2018-09-29T07:25:01.999Z,3.29
2018-09-29T07:26:02.054Z,3.32
2018-09-29T07:27:01.871Z,3.46
2018-09-29T07:28:01.820Z,3.43
2018-09-29T07:29:02.064Z,3.45
2018-09-29T07:30:01.887Z,3.51
2018-09-29T07:31:02.075Z,3.43
2018-09-29T07:32:01.880Z,3.42
2018-09-29T07:33:03.423Z,3.41
2018-09-29T07:34:03.117Z,3.55
2018-09-29T07:35:01.806Z,3.51
2018-09-29T07:36:01.833Z,3.52
2018-09-29T07:37:02.043Z,3.55
2018-09-29T07:38:01.790Z,3.46
2018-09-29T07:39:02.297Z,3.5
2018-09-29T07:40:01.836Z,3.5
2018-09-29T07:41:02.048Z,3.48
2018-09-29T07:42:01.950Z,3.41
2018-09-29T07:43:01.850Z,3.5
2018-09-29T07:44:02.171Z,3.59
2018-09-29T07:45:02.049Z,3.54
2018-09-29T07:46:01.829Z,3.54
2018-09-29T07:47:01.783Z,3.65
2018-09-29T07:48:01.768Z,3.62
2018-09-29T07:49:02.223Z,3.74
2018-09-29T07:50:01.803Z,3.76
2018-09-29T07:51:01.789Z,3.63
2018-09-29T07:52:01.782Z,3.6
2018-09-29T07:53:01.764Z,3.72
2018-09-29T07:54:01.996Z,3.72
2018-09-29T07:55:02.077Z,3.68
2018-09-29T07:56:02.110Z,3.69
2018-09-29T07:57:01.789Z,3.73
2018-09-29T07:58:01.925Z,3.79
2018-09-29T07:59:01.798Z,3.7
2018-09-29T08:00:02.008Z,3.71
2018-09-29T08:01:01.962Z,3.46
2018-09-29T08:02:01.807Z,3.44
2018-09-29T08:03:01.762Z,3.35
2018-09-29T08:04:01.748Z,3.42
2018-09-29T08:05:01.713Z,3.37
2018-09-29T08:06:01.721Z,3.38
2018-09-29T08:07:01.760Z,3.38
2018-09-29T08:08:01.757Z,3.36
2018-09-29T08:09:01.791Z,3.29
2018-09-29T08:10:01.777Z,3.23
2018-09-29T08:11:01.750Z,3.07
2018-09-29T08:12:01.805Z,3.19
2018-09-29T08:13:01.713Z,3.2
2018-09-29T08:14:01.718Z,3.23
2018-09-29T08:15:01.724Z,3.13
2018-09-29T08:16:01.732Z,3.03
2018-09-29T08:17:01.741Z,3.07
2018-09-29T08:18:01.736Z,3.05
2018-09-29T08:19:01.730Z,3.17
2018-09-29T08:20:01.808Z,3.14
2018-09-29T08:21:01.721Z,3.21
2018-09-29T08:22:01.713Z,3.12
2018-09-29T08:23:01.719Z,3.27
2018-09-29T08:24:02.227Z,3.2
2018-09-29T08:25:01.732Z,3.12
2018-09-29T08:26:01.756Z,3.3
2018-09-29T08:27:02.142Z,3.3
2018-09-29T08:28:01.694Z,3.26
2018-09-29T08:29:01.687Z,3.12
2018-09-29T08:30:01.710Z,3.17
2018-09-29T08:31:01.924Z,3.19
2018-09-29T08:32:01.845Z,3.34
2018-09-29T08:33:02.000Z,3.29
2018-09-29T08:34:01.812Z,3.18
2018-09-29T08:35:01.711Z,3.18
2018-09-29T08:36:01.774Z,3.06
2018-09-29T08:37:01.852Z,3.11
2018-09-29T08:38:01.781Z,3.09
2018-09-29T08:39:01.693Z,3.04
2018-09-29T08:40:01.709Z,2.99
2018-09-29T08:41:01.847Z,3.09
2018-09-29T08:42:01.703Z,3.08
2018-09-29T08:43:01.725Z,2.88
2018-09-29T08:44:01.766Z,2.79
2018-09-29T08:45:02.038Z,2.98
2018-09-29T08:46:01.823Z,2.99
2018-09-29T08:47:01.707Z,2.98
2018-09-29T08:48:01.702Z,3.06
2018-09-29T08:49:01.744Z,2.89
2018-09-29T08:50:01.882Z,2.96
2018-09-29T08:51:02.086Z,2.86
2018-09-29T08:52:02.074Z,3.04
2018-09-29T08:53:01.930Z,3.06
2018-09-29T08:54:01.779Z,3.19
2018-09-29T08:55:01.864Z,3.39
2018-09-29T08:56:02.338Z,3.28
2018-09-29T08:57:01.700Z,3.04
2018-09-29T08:58:01.767Z,3.17
2018-09-29T08:59:01.826Z,3.26
2018-09-29T09:00:01.785Z,2.96
2018-09-29T09:01:01.690Z,2.97
2018-09-29T09:02:01.812Z,3
2018-09-29T09:03:01.808Z,2.85
2018-09-29T09:04:02.529Z,2.92
2018-09-29T09:05:01.641Z,2.84
2018-09-29T09:06:01.723Z,2.95
2018-09-29T09:07:01.634Z,2.92
2018-09-29T09:08:01.675Z,3.16
2018-09-29T09:09:01.713Z,3.17
2018-09-29T09:10:01.753Z,3.12
2018-09-29T09:11:01.984Z,3.22
2018-09-29T09:12:01.674Z,2.89
2018-09-29T09:13:01.692Z,2.67
2018-09-29T09:14:02.020Z,2.59
2018-09-29T09:15:01.766Z,2.6
2018-09-29T09:16:01.779Z,2.82
2018-09-29T09:17:02.570Z,2.8
2018-09-29T09:18:01.686Z,2.61
2018-09-29T09:19:01.638Z,2.48
2018-09-29T09:20:01.642Z,2.62
2018-09-29T09:21:01.795Z,2.64
2018-09-29T09:22:01.700Z,2.36
2018-09-29T09:23:01.983Z,2.33
2018-09-29T09:24:01.801Z,2.44
2018-09-29T09:25:01.762Z,2.45
2018-09-29T09:26:01.621Z,2.36
2018-09-29T09:27:01.741Z,2.29
2018-09-29T09:28:01.859Z,2.3
2018-09-29T09:29:01.727Z,2.38
2018-09-29T09:30:01.869Z,2.41
2018-09-29T09:31:01.633Z,2.37
2018-09-29T09:32:01.766Z,2.32
2018-09-29T09:33:01.672Z,2.38
2018-09-29T09:34:01.626Z,2.51
2018-09-29T09:35:01.667Z,2.63
2018-09-29T09:36:01.604Z,2.57
2018-09-29T09:37:01.710Z,2.54
2018-09-29T09:38:01.669Z,2.36
2018-09-29T09:39:01.675Z,2.37
2018-09-29T09:40:01.660Z,2.07
2018-09-29T09:41:01.668Z,2.07
2018-09-29T09:42:01.665Z,1.86
2018-09-29T09:43:01.681Z,1.97
2018-09-29T09:44:01.606Z,2.01
2018-09-29T09:45:01.641Z,2.13
2018-09-29T09:46:01.588Z,2.1
2018-09-29T09:47:01.664Z,2.16
2018-09-29T09:48:01.671Z,2.01
2018-09-29T09:50:02.008Z,2.11
2018-09-29T09:51:01.707Z,1.81
2018-09-29T09:52:01.603Z,2.1
2018-09-29T09:53:01.613Z,2.37
2018-09-29T09:54:01.670Z,2.32
2018-09-29T09:55:01.725Z,2.33
2018-09-29T09:56:02.141Z,2.37
2018-09-29T09:57:01.635Z,2.4
2018-09-29T09:58:01.685Z,2.32
2018-09-29T09:59:03.226Z,2.39
2018-09-29T10:00:03.869Z,2.31
2018-09-29T10:01:01.578Z,2.22
2018-09-29T10:02:01.595Z,2.21
2018-09-29T10:03:01.877Z,2.11
2018-09-29T10:04:01.675Z,2.01
2018-09-29T10:05:01.635Z,2.24
2018-09-29T10:06:01.675Z,1.94
2018-09-29T10:07:01.592Z,2
2018-09-29T10:08:01.819Z,2.19
2018-09-29T10:09:01.689Z,2.11
2018-09-29T10:10:01.639Z,2.13
2018-09-29T10:11:01.636Z,2.37
2018-09-29T10:12:01.617Z,2.32
2018-09-29T10:13:01.687Z,2.32
2018-09-29T10:14:02.228Z,2.1
2018-09-29T10:15:01.591Z,1.93
2018-09-29T10:16:01.640Z,2.12
2018-09-29T10:17:01.717Z,1.99
2018-09-29T10:18:01.621Z,1.73
2018-09-29T10:19:01.591Z,2.15
2018-09-29T10:20:01.774Z,1.81
2018-09-29T10:21:01.593Z,1.78
2018-09-29T10:22:01.643Z,1.77
2018-09-29T10:23:01.722Z,1.8
2018-09-29T10:24:01.608Z,1.65
2018-09-29T10:25:02.671Z,1.49
2018-09-29T10:26:01.842Z,1.63
2018-09-29T10:27:01.665Z,1.73
2018-09-29T10:28:01.593Z,1.9
2018-09-29T10:29:01.621Z,1.97
2018-09-29T10:30:01.565Z,1.95
2018-09-29T10:31:01.604Z,1.59
2018-09-29T10:32:01.741Z,1.21
2018-09-29T10:33:01.652Z,0.91
2018-09-29T10:34:01.667Z,0.86
2018-09-29T10:35:01.757Z,0.97
2018-09-29T10:36:01.549Z,1.23
2018-09-29T10:37:01.572Z,1.48
2018-09-29T10:38:01.572Z,1.35
2018-09-29T10:39:01.720Z,1.24
2018-09-29T10:40:01.845Z,1.07
2018-09-29T10:41:01.718Z,1.26
2018-09-29T10:42:01.549Z,0.79
2018-09-29T10:43:01.729Z,1.13
2018-09-29T10:44:01.837Z,0.97
2018-09-29T10:45:01.660Z,1.27
2018-09-29T10:46:01.980Z,1.44
2018-09-29T10:47:01.655Z,1.31
2018-09-29T10:48:02.001Z,1.45
2018-09-29T10:49:01.598Z,1.34
2018-09-29T10:50:01.762Z,1.19
2018-09-29T10:51:01.641Z,1.37
2018-09-29T10:52:01.712Z,1.28
2018-09-29T10:53:02.468Z,1.15
2018-09-29T10:54:01.602Z,1.12
2018-09-29T10:55:01.595Z,0.88
2018-09-29T10:56:01.529Z,1.07
2018-09-29T10:57:01.567Z,0.66
2018-09-29T10:58:01.564Z,0.95
2018-09-29T10:59:01.750Z,0.91
2018-09-29T11:00:01.643Z,1.08
2018-09-29T11:01:01.545Z,0.86
2018-09-29T11:02:01.591Z,0.93
2018-09-29T11:03:01.643Z,1.16
2018-09-29T11:04:01.630Z,0.93
2018-09-29T11:05:02.085Z,1.07
2018-09-29T11:06:01.924Z,1.09
2018-09-29T11:07:01.563Z,1.36
2018-09-29T11:08:01.637Z,1.06
2018-09-29T11:09:01.530Z,1.32
2018-09-29T11:10:01.653Z,1.15
2018-09-29T11:11:02.172Z,1.23
2018-09-29T11:12:01.540Z,1.16
2018-09-29T11:13:01.529Z,1.4
2018-09-29T11:14:01.524Z,1.34
2018-09-29T11:15:01.528Z,1.47
2018-09-29T11:16:01.648Z,1.77
2018-09-29T11:17:01.526Z,1.46
2018-09-29T11:18:01.540Z,1.41
2018-09-29T11:19:01.534Z,1.49
2018-09-29T11:20:01.596Z,1.41
2018-09-29T11:21:02.357Z,1.4
2018-09-29T11:22:01.549Z,1.4
2018-09-29T11:23:01.478Z,1.32
2018-09-29T11:24:01.767Z,1.1
2018-09-29T11:25:01.540Z,1.3
2018-09-29T11:26:01.536Z,1.27
2018-09-29T11:27:01.567Z,1.26
2018-09-29T11:28:01.775Z,1.33
2018-09-29T11:29:01.607Z,1.4
2018-09-29T11:30:01.743Z,1.08
2018-09-29T11:31:01.770Z,1.25
2018-09-29T11:32:01.501Z,1.16
2018-09-29T11:33:01.619Z,1
2018-09-29T11:34:01.474Z,1.01
2018-09-29T11:35:01.691Z,1.23
2018-09-29T11:36:01.642Z,1.39
2018-09-29T11:37:01.578Z,1.13
2018-09-29T11:38:02.069Z,1.3
2018-09-29T11:39:01.625Z,1.33
2018-09-29T11:40:01.528Z,1.34
2018-09-29T11:41:01.629Z,1.11
2018-09-29T11:42:01.636Z,1.16
2018-09-29T11:43:01.836Z,0.93
2018-09-29T11:44:01.583Z,0.63
2018-09-29T11:45:01.535Z,0.76
2018-09-29T11:46:01.629Z,0.94
2018-09-29T11:47:02.448Z,0.83
2018-09-29T11:48:01.499Z,0.81
2018-09-29T11:49:01.618Z,1.11
2018-09-29T11:50:01.625Z,1.08
2018-09-29T11:51:01.521Z,1.28
2018-09-29T11:52:01.684Z,0.84
2018-09-29T11:53:01.843Z,1.06
2018-09-29T11:54:01.575Z,1.06
2018-09-29T11:55:01.805Z,1.08
2018-09-29T11:56:02.084Z,1.05
2018-09-29T11:57:01.524Z,0.98
2018-09-29T11:58:01.517Z,0.9
2018-09-29T11:59:01.476Z,0.95
2018-09-29T12:00:01.463Z,0.92
2018-09-29T12:01:01.582Z,0.61
2018-09-29T12:02:01.807Z,0.67
2018-09-29T12:03:01.559Z,0.87
2018-09-29T12:04:01.617Z,0.93
2018-09-29T12:05:01.654Z,0.76
2018-09-29T12:06:02.597Z,0.63
2018-09-29T12:07:01.772Z,0.66
2018-09-29T12:08:02.093Z,0.84
2018-09-29T12:09:01.474Z,1.08
2018-09-29T12:10:01.917Z,0.85
2018-09-29T12:11:01.436Z,0.94
2018-09-29T12:12:01.505Z,1.05
2018-09-29T12:13:01.484Z,1.05
2018-09-29T12:14:02.090Z,0.97
2018-09-29T12:15:01.446Z,1.4
2018-09-29T12:16:01.395Z,1.33
2018-09-29T12:17:02.486Z,1.38
2018-09-29T12:18:01.520Z,0.97
2018-09-29T12:19:01.561Z,0.99
2018-09-29T12:20:01.618Z,0.66
2018-09-29T12:21:01.812Z,0.59
2018-09-29T12:22:01.475Z,0.92
2018-09-29T12:23:02.578Z,1
2018-09-29T12:24:01.628Z,0.99
2018-09-29T12:25:02.446Z,0.78
2018-09-29T12:26:01.636Z,0.68
2018-09-29T12:27:01.638Z,0.39
2018-09-29T12:28:01.959Z,0.27
2018-09-29T12:29:01.749Z,0.5
2018-09-29T12:30:01.511Z,0.51
2018-09-29T12:31:01.755Z,0.65
2018-09-29T12:32:01.886Z,0.77
2018-09-29T12:33:04.023Z,0.82
2018-09-29T12:34:01.461Z,0.85
2018-09-29T12:35:01.603Z,0.88
2018-09-29T12:36:01.590Z,0.8
2018-09-29T12:37:56.679Z,0.62
2018-09-29T12:38:57.018Z,0.64
2018-09-29T12:39:58.067Z,0.51
2018-09-29T12:40:57.059Z,0.46
2018-09-29T12:41:57.035Z,0.57
2018-09-29T12:42:58.084Z,0.51
2018-09-29T12:43:57.855Z,0.66
2018-09-29T12:44:57.810Z,0.28
2018-09-29T12:45:57.055Z,0.46
2018-09-29T12:46:57.072Z,0.76
2018-09-29T12:47:56.981Z,0.65
2018-09-29T12:48:56.843Z,0.57
2018-09-29T12:49:56.998Z,0.72
2018-09-29T12:50:56.999Z,0.74
2018-09-29T12:51:57.414Z,0.56
2018-09-29T12:52:57.242Z,0.03
2018-09-29T12:53:57.212Z,0.35
2018-09-29T12:54:56.894Z,0.27
2018-09-29T12:55:57.028Z,0.57
2018-09-29T12:56:57.124Z,0.71
2018-09-29T12:57:57.150Z,0.39
2018-09-29T12:58:57.634Z,0.77
2018-09-29T12:59:56.908Z,0.77
2018-09-29T13:00:56.870Z,0.69
2018-09-29T13:01:57.289Z,0.76
2018-09-29T13:02:57.292Z,0.61
2018-09-29T13:03:56.896Z,0.49
2018-09-29T13:04:57.027Z,0.7
2018-09-29T13:05:57.039Z,0.49
2018-09-29T13:06:57.099Z,0.69
2018-09-29T13:07:56.956Z,0.69
2018-09-29T13:08:57.004Z,0.69
2018-09-29T13:09:56.906Z,0.32
2018-09-29T13:10:57.732Z,0.11
2018-09-29T13:11:56.891Z,0.26
2018-09-29T13:12:56.918Z,0.41
2018-09-29T13:13:56.909Z,0.53
2018-09-29T13:14:56.831Z,0.86
2018-09-29T13:15:57.111Z,0.88
2018-09-29T13:16:57.652Z,0.66
2018-09-29T13:17:56.822Z,0.59
2018-09-29T13:18:56.774Z,0.46
2018-09-29T13:19:57.099Z,0.64
2018-09-29T13:20:57.202Z,0.32
2018-09-29T13:21:56.818Z,0.41
2018-09-29T13:23:17.465Z,0.35